Grayling, Michigan
Current Conditions -  °F | °C
As of 9:55 PM on Sunday 23 Nov 2014 (Local Time) from KGOV Reporting Station
Moderate Rain Moderate Rain  
Wind Chill: 43°   Ceiling: 800
Heat Index: 47°   Visibility: 7mi
Dew Point: 47°   Wind: 10mph
Humidity: 100%   Direction: 120°ESE
Pressure: 29.41"   Gusts: NA
Location:  44.66°N, 84.71°W
Report Text: KGOV 240255Z AUTO 12009KT 7SM RA OVC008 09/09 A2941 RMK AO2 T00850085
Loading
Personal Weather Stations






























Interactive Weather Map New forecast layout! Learn more

10-Day Weather Forecast

Advertisements
Track Severe Weather on mobile